createdAt,value
2018-03-01T00:00:44.759Z,-5.04
2018-03-01T00:03:12.171Z,-5.09
2018-03-01T00:05:39.599Z,-5.18
2018-03-01T00:08:07.018Z,-5.22
2018-03-01T00:10:34.450Z,-5.23
2018-03-01T00:13:01.880Z,-5.25
2018-03-01T00:15:29.301Z,-5.18
2018-03-01T00:17:56.728Z,-5.24
2018-03-01T00:20:24.138Z,-5.31
2018-03-01T00:22:51.557Z,-5.28
2018-03-01T00:25:18.974Z,-5.30
2018-03-01T00:27:46.402Z,-5.26
2018-03-01T00:30:13.823Z,-5.16
2018-03-01T00:32:41.245Z,-5.19
2018-03-01T00:35:08.670Z,-5.23
2018-03-01T00:37:36.089Z,-5.20
2018-03-01T00:40:03.505Z,-5.18
2018-03-01T00:42:30.926Z,-5.25
2018-03-01T00:44:58.350Z,-5.19
2018-03-01T00:47:25.766Z,-5.24
2018-03-01T00:49:53.201Z,-5.15
2018-03-01T00:52:20.614Z,-5.12
2018-03-01T00:54:48.055Z,-5.05
2018-03-01T00:57:15.479Z,-5.05
2018-03-01T00:59:42.919Z,-5.02
2018-03-01T01:02:10.401Z,-5.02
2018-03-01T01:04:37.815Z,-5.05
2018-03-01T01:07:05.230Z,-4.98
2018-03-01T01:09:32.649Z,-4.97
2018-03-01T01:12:00.066Z,-4.90
2018-03-01T01:14:27.494Z,-4.99
2018-03-01T01:16:54.914Z,-4.98
2018-03-01T01:19:22.335Z,-4.95
2018-03-01T01:21:49.766Z,-5.00
2018-03-01T01:24:17.235Z,-5.00
2018-03-01T01:26:44.651Z,-4.89
2018-03-01T01:29:12.081Z,-4.88
2018-03-01T01:31:39.510Z,-4.81
2018-03-01T01:34:06.926Z,-5.00
2018-03-01T01:36:34.371Z,-4.96
2018-03-01T01:39:01.791Z,-4.95
2018-03-01T01:41:29.222Z,-4.87
2018-03-01T01:43:56.642Z,-4.83
2018-03-01T01:46:24.071Z,-4.92
2018-03-01T01:48:51.494Z,-4.74
2018-03-01T01:51:18.910Z,-4.78
2018-03-01T01:53:46.334Z,-4.93
2018-03-01T01:56:13.785Z,-4.93
2018-03-01T01:58:41.207Z,-4.94
2018-03-01T02:01:08.647Z,-4.84
2018-03-01T02:03:36.069Z,-4.74
2018-03-01T02:06:03.494Z,-4.78
2018-03-01T02:08:30.926Z,-4.88
2018-03-01T02:10:58.342Z,-4.87
2018-03-01T02:13:25.748Z,-4.85
2018-03-01T02:15:53.165Z,-4.92
2018-03-01T02:18:20.588Z,-4.93
2018-03-01T02:20:48.002Z,-4.88
2018-03-01T02:23:15.418Z,-4.86
2018-03-01T02:25:42.839Z,-4.80
2018-03-01T02:28:10.250Z,-4.89
2018-03-01T02:30:37.672Z,-4.88
2018-03-01T02:33:05.086Z,-4.94
2018-03-01T02:35:32.510Z,-4.81
2018-03-01T02:37:59.918Z,-4.91
2018-03-01T02:40:27.335Z,-4.96
2018-03-01T02:42:54.754Z,-4.95
2018-03-01T02:45:22.170Z,-4.88
2018-03-01T02:47:49.586Z,-4.94
2018-03-01T02:50:16.999Z,-5.05
2018-03-01T02:52:44.414Z,-5.07
2018-03-01T02:55:11.829Z,-4.98
2018-03-01T02:57:39.259Z,-5.01
2018-03-01T03:00:06.674Z,-5.01
2018-03-01T03:02:34.094Z,-5.03
2018-03-01T03:05:01.520Z,-5.05
2018-03-01T03:07:28.934Z,-5.09
2018-03-01T03:09:56.353Z,-5.02
2018-03-01T03:12:23.771Z,-4.92
2018-03-01T03:14:51.194Z,-5.10
2018-03-01T03:17:18.605Z,-5.03
2018-03-01T03:19:46.042Z,-5.03
2018-03-01T03:22:13.461Z,-5.11
2018-03-01T03:24:40.873Z,-4.99
2018-03-01T03:27:08.303Z,-4.96
2018-03-01T03:29:35.710Z,-4.95
2018-03-01T03:32:03.147Z,-5.00
2018-03-01T03:34:30.553Z,-5.01
2018-03-01T03:36:57.975Z,-5.03
2018-03-01T03:39:25.388Z,-4.99
2018-03-01T03:41:52.821Z,-5.02
2018-03-01T03:44:20.251Z,-4.93
2018-03-01T03:46:47.669Z,-4.86
2018-03-01T03:49:15.087Z,-4.74
2018-03-01T03:51:42.498Z,-4.60
2018-03-01T03:54:09.962Z,-4.67
2018-03-01T03:56:37.384Z,-4.80
2018-03-01T03:59:04.798Z,-4.73
2018-03-01T04:01:32.216Z,-4.70
2018-03-01T04:03:59.635Z,-4.68
2018-03-01T04:06:27.056Z,-4.65
2018-03-01T04:08:54.471Z,-4.56
2018-03-01T04:11:21.894Z,-4.46
2018-03-01T04:13:49.310Z,-4.52
2018-03-01T04:16:16.732Z,-4.49
2018-03-01T04:18:44.149Z,-4.50
2018-03-01T04:21:11.570Z,-4.71
2018-03-01T04:23:39.002Z,-4.58
2018-03-01T04:26:06.413Z,-4.64
2018-03-01T04:28:33.838Z,-4.61
2018-03-01T04:31:01.258Z,-4.65
2018-03-01T04:33:28.691Z,-4.72
2018-03-01T04:35:56.106Z,-4.74
2018-03-01T04:38:23.523Z,-4.80
2018-03-01T04:40:50.947Z,-4.81
2018-03-01T04:43:18.363Z,-4.71
2018-03-01T04:45:45.785Z,-4.75
2018-03-01T04:48:13.205Z,-4.76
2018-03-01T04:50:40.621Z,-4.73
2018-03-01T04:53:08.038Z,-4.76
2018-03-01T04:55:35.461Z,-4.61
2018-03-01T04:58:02.878Z,-4.53
2018-03-01T05:00:30.296Z,-4.59
2018-03-01T05:02:57.709Z,-4.61
2018-03-01T05:05:25.172Z,-4.60
2018-03-01T05:07:52.589Z,-4.60
2018-03-01T05:10:20.007Z,-4.57
2018-03-01T05:12:47.431Z,-4.51
2018-03-01T05:15:14.861Z,-4.54
2018-03-01T05:17:42.285Z,-4.56
2018-03-01T05:20:09.706Z,-4.58
2018-03-01T05:22:37.122Z,-4.46
2018-03-01T05:25:04.547Z,-4.60
2018-03-01T05:27:31.966Z,-4.46
2018-03-01T05:29:59.383Z,-4.50
2018-03-01T05:32:26.798Z,-4.53
2018-03-01T05:34:54.250Z,-4.45
2018-03-01T05:37:21.697Z,-4.44
2018-03-01T05:39:49.078Z,-4.52
2018-03-01T05:42:16.522Z,-4.55
2018-03-01T05:44:43.951Z,-4.61
2018-03-01T05:47:11.360Z,-4.51
2018-03-01T05:49:38.774Z,-4.52
2018-03-01T05:52:06.201Z,-4.68
2018-03-01T05:54:33.624Z,-4.65
2018-03-01T05:57:01.067Z,-4.77
2018-03-01T05:59:28.482Z,-4.60
2018-03-01T06:01:55.904Z,-4.68
2018-03-01T06:04:23.317Z,-4.68
2018-03-01T06:06:50.746Z,-4.76
2018-03-01T06:09:18.171Z,-4.71
2018-03-01T06:11:45.629Z,-4.69
2018-03-01T06:14:13.048Z,-4.63
2018-03-01T06:16:40.463Z,-4.49
2018-03-01T06:19:07.894Z,-4.45
2018-03-01T06:21:35.326Z,-4.45
2018-03-01T06:24:02.742Z,-4.57
2018-03-01T06:26:30.189Z,-4.68
2018-03-01T06:28:57.605Z,-4.60
2018-03-01T06:31:25.018Z,-4.54
2018-03-01T06:33:52.430Z,-4.56
2018-03-01T06:36:19.854Z,-4.40
2018-03-01T06:38:47.265Z,-4.42
2018-03-01T06:41:14.694Z,-4.43
2018-03-01T06:43:42.110Z,-4.56
2018-03-01T06:46:09.532Z,-4.47
2018-03-01T06:48:36.941Z,-4.52
2018-03-01T06:51:04.372Z,-4.40
2018-03-01T06:53:31.794Z,-4.36
2018-03-01T06:55:59.238Z,-4.38
2018-03-01T06:58:26.656Z,-4.30
2018-03-01T07:00:54.070Z,-4.34
2018-03-01T07:03:21.478Z,-4.37
2018-03-01T07:05:48.891Z,-4.35
2018-03-01T07:08:16.318Z,-4.42
2018-03-01T07:10:43.750Z,-4.52
2018-03-01T07:13:11.170Z,-4.41
2018-03-01T07:15:38.611Z,-4.38
2018-03-01T07:18:06.026Z,-4.50
2018-03-01T07:20:33.449Z,-4.50
2018-03-01T07:23:00.866Z,-4.44
2018-03-01T07:25:28.282Z,-4.36
2018-03-01T07:27:55.702Z,-4.29
2018-03-01T07:30:23.130Z,-4.29
2018-03-01T07:32:50.551Z,-4.09
2018-03-01T07:35:17.964Z,-3.93
2018-03-01T07:37:45.390Z,-3.95
2018-03-01T07:40:12.865Z,-3.84
2018-03-01T07:42:40.290Z,-3.93
2018-03-01T07:45:07.697Z,-3.89
2018-03-01T07:47:35.137Z,-3.96
2018-03-01T07:50:02.554Z,-3.78
2018-03-01T07:52:29.995Z,-3.80
2018-03-01T07:54:57.410Z,-3.91
2018-03-01T07:57:24.851Z,-3.66
2018-03-01T07:59:52.255Z,-3.84
2018-03-01T08:02:19.682Z,-3.69
2018-03-01T08:04:47.098Z,-3.73
2018-03-01T08:07:14.509Z,-3.55
2018-03-01T08:09:41.938Z,-3.52
2018-03-01T08:12:09.351Z,-3.58
2018-03-01T08:14:36.778Z,-3.37
2018-03-01T08:17:04.182Z,-3.37
2018-03-01T08:19:31.597Z,-3.27
2018-03-01T08:21:59.077Z,-3.26
2018-03-01T08:24:26.491Z,-3.16
2018-03-01T08:26:53.914Z,-3.09
2018-03-01T08:29:21.326Z,-3.23
2018-03-01T08:31:48.764Z,-3.05
2018-03-01T08:34:16.175Z,-3.00
2018-03-01T08:36:43.621Z,-3.14
2018-03-01T08:39:11.034Z,-2.89
2018-03-01T08:41:38.450Z,-2.81
2018-03-01T08:44:05.875Z,-2.91
2018-03-01T08:46:33.290Z,-2.84
2018-03-01T08:49:00.720Z,-2.74
2018-03-01T08:51:28.126Z,-2.77
2018-03-01T08:53:55.564Z,-2.72
2018-03-01T08:56:22.978Z,-2.57
2018-03-01T08:58:50.432Z,-2.42
2018-03-01T09:01:17.848Z,-2.21
2018-03-01T09:03:45.255Z,-2.30
2018-03-01T09:06:12.670Z,-2.21
2018-03-01T09:08:40.097Z,-2.22
2018-03-01T09:11:07.506Z,-2.25
2018-03-01T09:13:34.923Z,-1.99
2018-03-01T09:16:02.358Z,-1.96
2018-03-01T09:18:29.774Z,-1.78
2018-03-01T09:20:57.202Z,-1.72
2018-03-01T09:23:24.613Z,-1.67
2018-03-01T09:25:52.034Z,-1.55
2018-03-01T09:28:19.461Z,-1.25
2018-03-01T09:30:46.870Z,-1.35
2018-03-01T09:33:14.287Z,-1.06
2018-03-01T09:35:41.701Z,-1.07
2018-03-01T09:38:09.118Z,-0.76
2018-03-01T09:40:36.534Z,-1.21
2018-03-01T09:43:03.947Z,-0.96
2018-03-01T09:45:31.366Z,-0.76
2018-03-01T09:47:58.787Z,-0.60
2018-03-01T09:50:26.205Z,-0.45
2018-03-01T09:52:53.630Z,-0.20
2018-03-01T09:55:21.055Z,-0.32
2018-03-01T09:57:48.466Z,-0.02
2018-03-01T10:00:15.903Z,0.24
2018-03-01T10:02:43.314Z,0.41
2018-03-01T10:05:10.737Z,0.61
2018-03-01T10:07:38.145Z,0.80
2018-03-01T10:10:05.549Z,0.52
2018-03-01T10:12:32.965Z,0.65
2018-03-01T10:15:00.370Z,0.82
2018-03-01T10:17:27.806Z,0.96
2018-03-01T10:19:55.229Z,1.25
2018-03-01T10:22:22.650Z,1.57
2018-03-01T10:24:50.062Z,1.74
2018-03-01T10:27:17.491Z,1.66
2018-03-01T10:29:47.806Z,1.52
2018-03-01T10:32:15.257Z,1.66
2018-03-01T10:34:42.677Z,1.90
2018-03-01T10:37:10.090Z,2.32
2018-03-01T10:39:37.534Z,2.56
2018-03-01T10:42:04.958Z,2.44
2018-03-01T10:44:32.383Z,2.85
2018-03-01T10:46:59.810Z,2.98
2018-03-01T10:49:27.221Z,2.92
2018-03-01T10:51:54.634Z,3.22
2018-03-01T10:54:22.059Z,3.34
2018-03-01T10:56:49.478Z,3.07
2018-03-01T10:59:16.894Z,3.53
2018-03-01T11:01:49.803Z,3.92
2018-03-01T11:04:17.213Z,4.18
2018-03-01T11:06:44.644Z,3.84
2018-03-01T11:09:12.070Z,3.75
2018-03-01T11:11:39.509Z,4.19
2018-03-01T11:14:06.921Z,4.40
2018-03-01T11:16:34.339Z,4.19
2018-03-01T11:19:01.763Z,3.96
2018-03-01T11:21:29.185Z,3.79
2018-03-01T11:23:56.614Z,3.82
2018-03-01T11:26:24.042Z,3.55
2018-03-01T11:28:51.462Z,3.70
2018-03-01T11:31:18.884Z,3.70
2018-03-01T11:33:46.309Z,4.22
2018-03-01T11:36:13.732Z,3.43
2018-03-01T11:38:41.166Z,3.02
2018-03-01T11:41:08.612Z,3.02
2018-03-01T11:43:36.028Z,3.32
2018-03-01T11:46:03.468Z,3.92
2018-03-01T11:48:30.890Z,4.10
2018-03-01T11:50:58.315Z,3.85
2018-03-01T11:53:25.742Z,4.07
2018-03-01T11:55:53.189Z,4.53
2018-03-01T11:58:20.614Z,4.78
2018-03-01T12:00:48.034Z,4.55
2018-03-01T12:03:15.470Z,4.24
2018-03-01T12:05:42.885Z,4.10
2018-03-01T12:08:10.314Z,4.30
2018-03-01T12:10:37.755Z,4.60
2018-03-01T12:13:05.158Z,4.62
2018-03-01T12:15:32.578Z,5.17
2018-03-01T12:18:00.020Z,5.39
2018-03-01T12:20:27.434Z,5.14
2018-03-01T12:22:54.852Z,5.34
2018-03-01T12:25:22.280Z,5.19
2018-03-01T12:27:49.691Z,5.15
2018-03-01T12:30:17.125Z,5.12
2018-03-01T12:32:44.539Z,4.74
2018-03-01T12:35:11.958Z,4.81
2018-03-01T12:37:39.391Z,4.80
2018-03-01T12:40:06.818Z,4.92
2018-03-01T12:42:34.238Z,5.09
2018-03-01T12:45:01.663Z,5.35
2018-03-01T12:47:29.078Z,5.35
2018-03-01T12:49:56.500Z,5.60
2018-03-01T12:52:23.925Z,5.70
2018-03-01T12:54:51.363Z,5.80
2018-03-01T12:57:18.787Z,5.65
2018-03-01T12:59:46.203Z,5.69
2018-03-01T13:02:13.611Z,5.49
2018-03-01T13:04:46.414Z,5.68
2018-03-01T13:07:13.839Z,5.76
2018-03-01T13:09:41.262Z,5.68
2018-03-01T13:12:08.683Z,5.47
2018-03-01T13:14:36.112Z,5.40
2018-03-01T13:17:03.534Z,5.09
2018-03-01T13:19:30.950Z,5.11
2018-03-01T13:21:58.366Z,5.23
2018-03-01T13:24:25.791Z,5.20
2018-03-01T13:26:53.198Z,4.93
2018-03-01T13:29:20.631Z,5.07
2018-03-01T13:31:48.417Z,4.87
2018-03-01T13:34:20.227Z,4.71
2018-03-01T13:36:47.650Z,4.76
2018-03-01T13:39:15.070Z,4.84
2018-03-01T13:41:42.502Z,4.86
2018-03-01T13:44:09.924Z,4.90
2018-03-01T13:46:38.189Z,5.11
2018-03-01T13:49:05.606Z,5.04
2018-03-01T13:51:33.045Z,4.92
2018-03-01T13:54:00.482Z,4.56
2018-03-01T13:56:27.903Z,4.56
2018-03-01T13:58:55.366Z,4.67
2018-03-01T14:01:22.776Z,4.89
2018-03-01T14:03:50.215Z,5.12
2018-03-01T14:06:17.622Z,4.86
2018-03-01T14:08:45.102Z,4.39
2018-03-01T14:11:12.514Z,4.15
2018-03-01T14:13:42.894Z,4.06
2018-03-01T14:16:10.294Z,4.14
2018-03-01T14:21:59.886Z,4.29
2018-03-01T14:24:30.634Z,4.21
2018-03-01T14:27:01.883Z,4.06
2018-03-01T14:29:32.831Z,3.86
2018-03-01T14:32:00.270Z,3.65
2018-03-01T14:34:28.056Z,3.92
2018-03-01T14:36:55.490Z,4.02
2018-03-01T14:39:22.910Z,3.99
2018-03-01T14:41:50.342Z,3.98
2018-03-01T14:44:17.758Z,4.02
2018-03-01T14:46:45.202Z,3.83
2018-03-01T14:49:12.618Z,3.93
2018-03-01T14:51:40.106Z,3.70
2018-03-01T14:54:07.514Z,3.57
2018-03-01T14:56:34.935Z,3.55
2018-03-01T14:59:02.398Z,3.53
2018-03-01T15:01:29.823Z,3.65
2018-03-01T15:03:57.243Z,3.59
2018-03-01T15:06:24.774Z,3.60
2018-03-01T15:08:52.186Z,3.40
2018-03-01T15:11:19.606Z,3.26
2018-03-01T15:13:47.035Z,3.47
2018-03-01T15:16:14.483Z,3.40
2018-03-01T15:18:41.900Z,3.55
2018-03-01T15:21:09.327Z,3.41
2018-03-01T15:23:36.757Z,3.51
2018-03-01T15:26:04.178Z,3.53
2018-03-01T15:28:31.594Z,3.61
2018-03-01T15:30:59.018Z,3.59
2018-03-01T15:33:26.442Z,3.69
2018-03-01T15:35:53.863Z,3.23
2018-03-01T15:38:21.284Z,3.17
2018-03-01T15:40:48.702Z,3.10
2018-03-01T15:43:16.122Z,3.16
2018-03-01T15:45:43.552Z,3.15
2018-03-01T15:48:10.982Z,3.14
2018-03-01T15:50:38.397Z,2.65
2018-03-01T15:53:05.830Z,2.84
2018-03-01T15:55:33.249Z,2.99
2018-03-01T15:58:00.684Z,2.98
2018-03-01T16:00:28.102Z,2.85
2018-03-01T16:02:55.534Z,2.74
2018-03-01T16:05:22.953Z,2.71
2018-03-01T16:07:50.370Z,2.74
2018-03-01T16:10:17.798Z,2.59
2018-03-01T16:12:45.227Z,2.46
2018-03-01T16:15:12.650Z,2.29
2018-03-01T16:17:40.078Z,2.19
2018-03-01T16:20:07.495Z,2.15
2018-03-01T16:22:34.922Z,2.06
2018-03-01T16:25:02.338Z,2.09
2018-03-01T16:27:29.758Z,2.11
2018-03-01T16:29:57.181Z,1.99
2018-03-01T16:32:24.629Z,1.96
2018-03-01T16:34:52.038Z,1.91
2018-03-01T16:37:19.911Z,1.94
2018-03-01T16:39:47.325Z,1.82
2018-03-01T16:42:14.735Z,1.70
2018-03-01T16:44:42.150Z,1.58
2018-03-01T16:47:09.557Z,1.53
2018-03-01T16:49:36.989Z,1.51
2018-03-01T16:52:04.406Z,1.34
2018-03-01T16:54:31.820Z,1.36
2018-03-01T16:56:59.234Z,1.40
2018-03-01T16:59:26.653Z,1.38
2018-03-01T17:01:54.062Z,1.33
2018-03-01T17:04:21.477Z,1.14
2018-03-01T17:06:48.929Z,1.15
2018-03-01T17:09:16.347Z,0.99
2018-03-01T17:11:44.056Z,0.97
2018-03-01T17:14:11.514Z,0.87
2018-03-01T17:16:38.931Z,0.86
2018-03-01T17:19:06.351Z,0.79
2018-03-01T17:21:42.050Z,0.85
2018-03-01T17:24:09.486Z,0.78
2018-03-01T17:26:36.913Z,0.62
2018-03-01T17:29:04.341Z,0.58
2018-03-01T17:31:31.760Z,0.61
2018-03-01T17:33:59.175Z,0.62
2018-03-01T17:36:26.590Z,0.46
2018-03-01T17:38:54.013Z,0.52
2018-03-01T17:41:21.466Z,0.37
2018-03-01T17:43:48.869Z,0.40
2018-03-01T17:46:16.291Z,0.43
2018-03-01T17:48:43.709Z,0.35
2018-03-01T17:51:11.126Z,0.27
2018-03-01T17:53:38.551Z,0.26
2018-03-01T17:56:05.974Z,0.22
2018-03-01T17:58:36.939Z,0.23
2018-03-01T18:01:04.386Z,0.17
2018-03-01T18:03:31.796Z,0.09
2018-03-01T18:05:59.216Z,0.14
2018-03-01T18:08:26.630Z,0.18
2018-03-01T18:10:54.071Z,0.16
2018-03-01T18:13:21.479Z,0.04
2018-03-01T18:15:48.911Z,0.07
2018-03-01T18:18:16.321Z,0.03
2018-03-01T18:20:43.740Z,-0.02
2018-03-01T18:23:11.154Z,-0.05
2018-03-01T18:25:38.588Z,-0.08
2018-03-01T18:28:05.998Z,-0.14
2018-03-01T18:30:33.415Z,-0.16
2018-03-01T18:33:00.846Z,-0.17
2018-03-01T18:35:28.295Z,-0.12
2018-03-01T18:37:55.723Z,-0.22
2018-03-01T18:40:23.145Z,-0.26
2018-03-01T18:42:50.584Z,-0.31
2018-03-01T18:45:17.999Z,-0.37
2018-03-01T18:47:45.422Z,-0.45
2018-03-01T18:50:12.837Z,-0.43
2018-03-01T18:52:40.251Z,-0.41
2018-03-01T18:55:07.681Z,-0.47
2018-03-01T18:57:35.108Z,-0.45
2018-03-01T19:00:02.520Z,-0.57
2018-03-01T19:02:29.954Z,-0.58
2018-03-01T19:04:57.362Z,-0.52
2018-03-01T19:07:24.800Z,-0.62
2018-03-01T19:09:52.218Z,-0.60
2018-03-01T19:12:21.498Z,-0.65
2018-03-01T19:14:49.002Z,-0.68
2018-03-01T19:17:16.421Z,-0.67
2018-03-01T19:19:43.848Z,-0.68
2018-03-01T19:22:11.265Z,-0.63
2018-03-01T19:24:38.694Z,-0.70
2018-03-01T19:27:06.106Z,-0.72
2018-03-01T19:29:33.526Z,-0.80
2018-03-01T19:32:01.002Z,-0.83
2018-03-01T19:34:28.415Z,-0.79
2018-03-01T19:36:55.842Z,-0.76
2018-03-01T19:39:23.252Z,-0.82
2018-03-01T19:41:50.697Z,-0.89
2018-03-01T19:44:18.106Z,-0.82
2018-03-01T19:46:45.513Z,-0.80
2018-03-01T19:49:12.930Z,-0.83
2018-03-01T19:51:40.346Z,-0.93
2018-03-01T19:54:07.765Z,-0.97
2018-03-01T19:56:35.178Z,-0.89
2018-03-01T19:59:02.818Z,-0.97
2018-03-01T20:01:30.274Z,-1.01
2018-03-01T20:03:57.690Z,-1.09
2018-03-01T20:06:25.154Z,-1.02
2018-03-01T20:08:52.562Z,-1.04
2018-03-01T20:11:19.983Z,-1.01
2018-03-01T20:13:47.399Z,-0.99
2018-03-01T20:16:14.818Z,-1.02
2018-03-01T20:18:42.257Z,-0.99
2018-03-01T20:21:09.679Z,-0.99
2018-03-01T20:23:37.102Z,-0.97
2018-03-01T20:26:04.514Z,-1.15
2018-03-01T20:28:31.947Z,-1.11
2018-03-01T20:31:00.388Z,-1.06
2018-03-01T20:33:27.811Z,-1.14
2018-03-01T20:35:55.287Z,-1.17
2018-03-01T20:38:22.641Z,-1.09
2018-03-01T20:40:50.058Z,-1.18
2018-03-01T20:43:17.466Z,-1.15
2018-03-01T20:45:44.882Z,-1.18
2018-03-01T20:48:12.295Z,-1.16
2018-03-01T20:50:39.715Z,-1.22
2018-03-01T20:53:07.131Z,-1.22
2018-03-01T20:55:34.541Z,-1.27
2018-03-01T20:58:01.962Z,-1.31
2018-03-01T21:00:29.374Z,-1.23
2018-03-01T21:02:56.785Z,-1.26
2018-03-01T21:05:24.207Z,-1.29
2018-03-01T21:07:51.630Z,-1.30
2018-03-01T21:10:19.047Z,-1.23
2018-03-01T21:12:46.454Z,-1.32
2018-03-01T21:15:13.875Z,-1.34
2018-03-01T21:17:41.301Z,-1.26
2018-03-01T21:20:08.752Z,-1.38
2018-03-01T21:22:36.171Z,-1.33
2018-03-01T21:25:03.600Z,-1.38
2018-03-01T21:27:31.010Z,-1.37
2018-03-01T21:29:58.426Z,-1.46
2018-03-01T21:32:25.855Z,-1.44
2018-03-01T21:34:53.266Z,-1.37
2018-03-01T21:37:20.687Z,-1.42
2018-03-01T21:39:48.099Z,-1.39
2018-03-01T21:42:15.533Z,-1.35
2018-03-01T21:44:42.944Z,-1.41
2018-03-01T21:47:10.354Z,-1.56
2018-03-01T21:49:37.775Z,-1.54
2018-03-01T21:52:05.190Z,-1.49
2018-03-01T21:54:32.622Z,-1.49
2018-03-01T21:57:00.040Z,-1.54
2018-03-01T21:59:27.442Z,-1.46
2018-03-01T22:01:54.879Z,-1.57
2018-03-01T22:04:22.282Z,-1.49
2018-03-01T22:06:49.704Z,-1.58
2018-03-01T22:09:17.118Z,-1.59
2018-03-01T22:11:44.571Z,-1.59
2018-03-01T22:14:11.990Z,-1.60
2018-03-01T22:16:39.436Z,-1.66
2018-03-01T22:19:06.858Z,-1.70
2018-03-01T22:21:34.269Z,-1.58
2018-03-01T22:24:01.695Z,-1.59
2018-03-01T22:26:29.106Z,-1.72
2018-03-01T22:28:56.538Z,-1.76
2018-03-01T22:31:24.007Z,-1.75
2018-03-01T22:33:51.420Z,-1.74
2018-03-01T22:36:18.947Z,-1.74
2018-03-01T22:38:46.382Z,-1.67
2018-03-01T22:41:13.802Z,-1.70
2018-03-01T22:43:41.215Z,-1.70
2018-03-01T22:46:08.659Z,-1.78
2018-03-01T22:48:36.078Z,-1.73
2018-03-01T22:51:03.486Z,-1.82
2018-03-01T22:53:30.906Z,-1.83
2018-03-01T22:55:58.323Z,-1.84
2018-03-01T22:58:25.754Z,-1.91
2018-03-01T23:00:54.786Z,-2.01
2018-03-01T23:03:22.206Z,-1.89
2018-03-01T23:05:49.636Z,-1.84
2018-03-01T23:08:17.070Z,-1.88
2018-03-01T23:10:44.495Z,-1.91
2018-03-01T23:13:11.914Z,-1.85
2018-03-01T23:15:39.330Z,-1.89
2018-03-01T23:18:06.746Z,-1.85
2018-03-01T23:20:34.167Z,-1.88
2018-03-01T23:23:01.581Z,-1.86
2018-03-01T23:25:29.010Z,-1.89
2018-03-01T23:27:56.422Z,-1.96
2018-03-01T23:30:23.839Z,-1.89
2018-03-01T23:32:51.260Z,-1.94
2018-03-01T23:35:18.675Z,-1.96
2018-03-01T23:37:46.106Z,-2.00
2018-03-01T23:40:13.526Z,-2.08
2018-03-01T23:42:40.942Z,-2.11
2018-03-01T23:45:08.360Z,-2.08
2018-03-01T23:47:35.771Z,-2.05
2018-03-01T23:50:03.198Z,-2.11
2018-03-01T23:52:30.602Z,-2.10
2018-03-01T23:54:58.022Z,-2.12
2018-03-01T23:57:25.438Z,-2.22
2018-03-01T23:59:52.867Z,-2.17
